sensor_id;sensor_type;location;lat;lon;timestamp;pressure;altitude;pressure_sealevel;temperature;humidity
59987;BME280;46181;51.498;5.392;2022-12-16T00:01:28;100896.7;;;2.76;56.81934
59987;BME280;46181;51.498;5.392;2022-12-16T00:05:59;100890.8;;;2.85;56.79883
59987;BME280;46181;51.498;5.392;2022-12-16T00:10:28;100894.6;;;2.99;56.7168
59987;BME280;46181;51.498;5.392;2022-12-16T00:14:58;100887.7;;;3.11;56.65527
59987;BME280;46181;51.498;5.392;2022-12-16T00:19:28;100887.4;;;3.23;56.5498
59987;BME280;46181;51.498;5.392;2022-12-16T00:23:58;100883.6;;;3.34;56.33203
59987;BME280;46181;51.498;5.392;2022-12-16T00:28:28;100878.5;;;3.42;56.37402
59987;BME280;46181;51.498;5.392;2022-12-16T00:32:58;100883;;;3.5;56.34082
59987;BME280;46181;51.498;5.392;2022-12-16T00:37:28;100883.9;;;3.59;56.28613
59987;BME280;46181;51.498;5.392;2022-12-16T00:41:58;100878.2;;;3.65;56.17285
59987;BME280;46181;51.498;5.392;2022-12-16T00:46:28;100879.6;;;3.7;56.15723
59987;BME280;46181;51.498;5.392;2022-12-16T00:50:58;100877.8;;;3.78;56.15625
59987;BME280;46181;51.498;5.392;2022-12-16T00:55:28;100886.8;;;3.91;55.96289
59987;BME280;46181;51.498;5.392;2022-12-16T00:59:58;100886.7;;;3.95;55.95801
59987;BME280;46181;51.498;5.392;2022-12-16T01:04:28;100891;;;4.01;55.97559
59987;BME280;46181;51.498;5.392;2022-12-16T01:08:58;100898.4;;;4.07;55.93848
59987;BME280;46181;51.498;5.392;2022-12-16T01:13:28;100903;;;4.12;55.85742
59987;BME280;46181;51.498;5.392;2022-12-16T01:17:58;100909.9;;;4.17;55.79688
59987;BME280;46181;51.498;5.392;2022-12-16T01:22:28;100911.2;;;4.18;55.83301
59987;BME280;46181;51.498;5.392;2022-12-16T01:26:58;100914.9;;;4.23;55.7832
59987;BME280;46181;51.498;5.392;2022-12-16T01:31:28;100924.4;;;4.25;55.74219
59987;BME280;46181;51.498;5.392;2022-12-16T01:36:02;100926.1;;;4.29;55.69141
59987;BME280;46181;51.498;5.392;2022-12-16T01:40:29;100932.1;;;4.28;55.64453
59987;BME280;46181;51.498;5.392;2022-12-16T01:49:32;100950.5;;;4.29;55.66797
59987;BME280;46181;51.498;5.392;2022-12-16T01:54:00;100952.9;;;4.3;55.69238
59987;BME280;46181;51.498;5.392;2022-12-16T01:58:30;100946.3;;;4.33;55.62891
59987;BME280;46181;51.498;5.392;2022-12-16T02:02:59;100948.6;;;4.33;55.61914
59987;BME280;46181;51.498;5.392;2022-12-16T02:07:28;100954.9;;;4.35;55.59668
59987;BME280;46181;51.498;5.392;2022-12-16T02:12:09;100962.8;;;4.29;55.49023
59987;BME280;46181;51.498;5.392;2022-12-16T02:16:33;100961.9;;;4.3;55.6582
59987;BME280;46181;51.498;5.392;2022-12-16T02:21:25;100968.4;;;4.21;55.88086
59987;BME280;46181;51.498;5.392;2022-12-16T02:25:57;100968.7;;;4.21;55.8916
59987;BME280;46181;51.498;5.392;2022-12-16T02:34:33;100977.7;;;4.26;55.80859
59987;BME280;46181;51.498;5.392;2022-12-16T02:39:04;100980.9;;;4.28;55.82227
59987;BME280;46181;51.498;5.392;2022-12-16T02:43:42;100984.9;;;4.31;55.83789
59987;BME280;46181;51.498;5.392;2022-12-16T02:47:58;100981.3;;;4.39;55.7041
59987;BME280;46181;51.498;5.392;2022-12-16T02:52:30;100977.1;;;4.41;55.62793
59987;BME280;46181;51.498;5.392;2022-12-16T02:57:11;100985.5;;;4.34;55.74121
59987;BME280;46181;51.498;5.392;2022-12-16T03:01:34;100988.7;;;4.37;55.73438
59987;BME280;46181;51.498;5.392;2022-12-16T03:05:59;100990.5;;;4.4;55.7041
59987;BME280;46181;51.498;5.392;2022-12-16T03:10:31;100992.6;;;4.33;55.73047
59987;BME280;46181;51.498;5.392;2022-12-16T03:15:00;100990.7;;;4.32;55.79395
59987;BME280;46181;51.498;5.392;2022-12-16T03:19:29;100990.6;;;4.31;55.83789
59987;BME280;46181;51.498;5.392;2022-12-16T03:24:00;101003;;;4.35;55.78613
59987;BME280;46181;51.498;5.392;2022-12-16T03:28:37;101003.9;;;4.27;55.94336
59987;BME280;46181;51.498;5.392;2022-12-16T03:33:00;101002.8;;;4.29;55.93457
59987;BME280;46181;51.498;5.392;2022-12-16T03:37:30;101000.4;;;4.27;56.03223
59987;BME280;46181;51.498;5.392;2022-12-16T03:41:59;101003.7;;;4.23;56.06055
59987;BME280;46181;51.498;5.392;2022-12-16T03:46:28;101011;;;4.2;56.1123
59987;BME280;46181;51.498;5.392;2022-12-16T03:50:58;101017.7;;;4.18;56.25391
59987;BME280;46181;51.498;5.392;2022-12-16T03:55:28;101021.3;;;4.21;56.32422
59987;BME280;46181;51.498;5.392;2022-12-16T03:59:58;101022.6;;;4.2;56.35645
59987;BME280;46181;51.498;5.392;2022-12-16T04:04:28;101022.9;;;4.22;56.41309
59987;BME280;46181;51.498;5.392;2022-12-16T04:08:58;101036.9;;;4.24;56.53906
59987;BME280;46181;51.498;5.392;2022-12-16T04:13:28;101038.5;;;4.27;56.62012
59987;BME280;46181;51.498;5.392;2022-12-16T04:17:58;101040.6;;;4.31;56.64844
59987;BME280;46181;51.498;5.392;2022-12-16T04:22:30;101047.3;;;4.32;56.68164
59987;BME280;46181;51.498;5.392;2022-12-16T04:26:58;101054.7;;;4.35;56.71875
59987;BME280;46181;51.498;5.392;2022-12-16T04:31:28;101059.1;;;4.36;56.75391
59987;BME280;46181;51.498;5.392;2022-12-16T04:35:58;101068.2;;;4.37;56.83301
59987;BME280;46181;51.498;5.392;2022-12-16T04:40:28;101069.7;;;4.4;56.95996
59987;BME280;46181;51.498;5.392;2022-12-16T04:44:58;101077.8;;;4.45;57.02148
59987;BME280;46181;51.498;5.392;2022-12-16T04:49:28;101074.6;;;4.43;57.05176
59987;BME280;46181;51.498;5.392;2022-12-16T04:53:58;101082.1;;;4.44;57.15332
59987;BME280;46181;51.498;5.392;2022-12-16T04:58:28;101083;;;4.5;57.19531
59987;BME280;46181;51.498;5.392;2022-12-16T05:03:00;101089;;;4.51;57.21875
59987;BME280;46181;51.498;5.392;2022-12-16T05:07:28;101089.3;;;4.55;57.27832
59987;BME280;46181;51.498;5.392;2022-12-16T05:11:58;101088.6;;;4.54;57.32324
59987;BME280;46181;51.498;5.392;2022-12-16T05:16:28;101098.7;;;4.53;57.44238
59987;BME280;46181;51.498;5.392;2022-12-16T05:21:00;101100.2;;;4.57;57.4707
59987;BME280;46181;51.498;5.392;2022-12-16T05:25:28;101108.4;;;4.57;57.54883
59987;BME280;46181;51.498;5.392;2022-12-16T05:29:58;101108.4;;;4.58;57.63867
59987;BME280;46181;51.498;5.392;2022-12-16T05:34:28;101120.9;;;4.62;57.69922
59987;BME280;46181;51.498;5.392;2022-12-16T05:38:58;101119.8;;;4.63;57.77734
59987;BME280;46181;51.498;5.392;2022-12-16T05:43:28;101131.1;;;4.63;57.84473
59987;BME280;46181;51.498;5.392;2022-12-16T05:47:59;101143.5;;;4.64;57.93555
59987;BME280;46181;51.498;5.392;2022-12-16T05:52:28;101145.4;;;4.71;58
59987;BME280;46181;51.498;5.392;2022-12-16T05:56:58;101145.7;;;4.76;57.88477
59987;BME280;46181;51.498;5.392;2022-12-16T06:01:28;101152.8;;;4.76;58.01855
59987;BME280;46181;51.498;5.392;2022-12-16T06:05:58;101150.3;;;4.74;58.16992
59987;BME280;46181;51.498;5.392;2022-12-16T06:10:28;101150.8;;;4.71;58.2998
59987;BME280;46181;51.498;5.392;2022-12-16T06:14:58;101156.5;;;4.7;58.3877
59987;BME280;46181;51.498;5.392;2022-12-16T06:19:28;101162.4;;;4.72;58.49023
59987;BME280;46181;51.498;5.392;2022-12-16T06:23:58;101167.2;;;4.75;58.57227
59987;BME280;46181;51.498;5.392;2022-12-16T06:28:28;101170.7;;;4.79;58.66602
59987;BME280;46181;51.498;5.392;2022-12-16T06:32:58;101179.1;;;4.84;58.62793
59987;BME280;46181;51.498;5.392;2022-12-16T06:37:28;101175.8;;;4.83;58.7373
59987;BME280;46181;51.498;5.392;2022-12-16T06:41:58;101186.2;;;4.84;58.81641
59987;BME280;46181;51.498;5.392;2022-12-16T06:46:28;101194.8;;;4.84;58.97363
59987;BME280;46181;51.498;5.392;2022-12-16T06:50:58;101198.2;;;4.8;59.10059
59987;BME280;46181;51.498;5.392;2022-12-16T06:55:29;101200.9;;;4.76;59.19531
59987;BME280;46181;51.498;5.392;2022-12-16T06:59:58;101209.6;;;4.74;59.38086
59987;BME280;46181;51.498;5.392;2022-12-16T07:04:28;101215.5;;;4.73;59.49023
59987;BME280;46181;51.498;5.392;2022-12-16T07:08:58;101218.5;;;4.71;59.52148
59987;BME280;46181;51.498;5.392;2022-12-16T07:13:28;101231.3;;;4.65;59.60059
59987;BME280;46181;51.498;5.392;2022-12-16T07:17:58;101232.8;;;4.63;59.63184
59987;BME280;46181;51.498;5.392;2022-12-16T07:22:28;101244.3;;;4.53;59.70801
59987;BME280;46181;51.498;5.392;2022-12-16T07:26:58;101254.5;;;4.42;59.80273
59987;BME280;46181;51.498;5.392;2022-12-16T07:31:28;101261.2;;;4.33;60.01172
59987;BME280;46181;51.498;5.392;2022-12-16T07:35:58;101259.5;;;4.25;60.61133
59987;BME280;46181;51.498;5.392;2022-12-16T07:40:28;101266.3;;;4.32;60.84277
59987;BME280;46181;51.498;5.392;2022-12-16T07:44:58;101269.8;;;4.36;60.76953
59987;BME280;46181;51.498;5.392;2022-12-16T07:49:28;101272.7;;;4.36;60.78223
59987;BME280;46181;51.498;5.392;2022-12-16T07:53:58;101278.5;;;4.39;60.85254
59987;BME280;46181;51.498;5.392;2022-12-16T07:58:28;101284.7;;;4.38;60.81641
59987;BME280;46181;51.498;5.392;2022-12-16T08:02:59;101295.3;;;4.31;60.94043
59987;BME280;46181;51.498;5.392;2022-12-16T08:07:28;101301.6;;;4.33;60.99902
59987;BME280;46181;51.498;5.392;2022-12-16T08:12:01;101307.4;;;4.4;60.99707
59987;BME280;46181;51.498;5.392;2022-12-16T08:16:28;101320.7;;;4.43;60.90234
59987;BME280;46181;51.498;5.392;2022-12-16T08:20:58;101317.7;;;4.47;60.90723
59987;BME280;46181;51.498;5.392;2022-12-16T08:25:28;101328;;;4.51;60.76953
59987;BME280;46181;51.498;5.392;2022-12-16T08:29:58;101340.5;;;4.55;60.96289
59987;BME280;46181;51.498;5.392;2022-12-16T08:34:28;101343.2;;;4.57;60.83398
59987;BME280;46181;51.498;5.392;2022-12-16T08:38:58;101348.7;;;4.55;60.79785
59987;BME280;46181;51.498;5.392;2022-12-16T08:43:29;101358.1;;;4.61;60.7832
59987;BME280;46181;51.498;5.392;2022-12-16T08:47:58;101369.6;;;4.69;60.80566
59987;BME280;46181;51.498;5.392;2022-12-16T08:52:28;101373.2;;;4.76;60.79395
59987;BME280;46181;51.498;5.392;2022-12-16T08:56:58;101373.6;;;4.84;60.79297
59987;BME280;46181;51.498;5.392;2022-12-16T09:01:28;101384.8;;;4.96;60.7334
59987;BME280;46181;51.498;5.392;2022-12-16T09:06:00;101387.7;;;5.06;60.66895
59987;BME280;46181;51.498;5.392;2022-12-16T09:14:58;101393.6;;;5.13;60.24609
59987;BME280;46181;51.498;5.392;2022-12-16T09:19:28;101400.1;;;5.19;60.40918
59987;BME280;46181;51.498;5.392;2022-12-16T09:23:58;101404.2;;;5.19;60.36523
59987;BME280;46181;51.498;5.392;2022-12-16T09:28:28;101411.7;;;5.24;60.36133
59987;BME280;46181;51.498;5.392;2022-12-16T09:33:00;101416.5;;;5.25;60.28418
59987;BME280;46181;51.498;5.392;2022-12-16T09:37:28;101422.6;;;5.23;60.31445
59987;BME280;46181;51.498;5.392;2022-12-16T09:42:05;101438.2;;;5.22;60.30176
59987;BME280;46181;51.498;5.392;2022-12-16T09:46:31;101441.4;;;5.23;60.20313
59987;BME280;46181;51.498;5.392;2022-12-16T09:51:01;101440.9;;;5.21;60.21289
59987;BME280;46181;51.498;5.392;2022-12-16T09:55:32;101446.6;;;5.2;60.29004
59987;BME280;46181;51.498;5.392;2022-12-16T10:00:03;101456.6;;;5.19;60.26465
59987;BME280;46181;51.498;5.392;2022-12-16T10:04:28;101464.7;;;5.18;60.27441
59987;BME280;46181;51.498;5.392;2022-12-16T10:09:02;101462.4;;;5.22;60.43555
59987;BME280;46181;51.498;5.392;2022-12-16T10:13:36;101466.8;;;5.29;60.42285
59987;BME280;46181;51.498;5.392;2022-12-16T10:17:58;101473.3;;;5.39;60.1377
59987;BME280;46181;51.498;5.392;2022-12-16T10:22:32;101474.9;;;5.42;60.05273
59987;BME280;46181;51.498;5.392;2022-12-16T10:27:03;101484.2;;;5.51;60.21973
59987;BME280;46181;51.498;5.392;2022-12-16T10:31:28;101489.3;;;5.6;60.10059
59987;BME280;46181;51.498;5.392;2022-12-16T10:36:00;101489.6;;;5.61;59.91211
59987;BME280;46181;51.498;5.392;2022-12-16T10:40:31;101499.1;;;5.61;59.92383
59987;BME280;46181;51.498;5.392;2022-12-16T10:45:02;101499.8;;;5.65;59.89648
59987;BME280;46181;51.498;5.392;2022-12-16T10:49:28;101500;;;5.66;59.77441
59987;BME280;46181;51.498;5.392;2022-12-16T10:53:59;101503.4;;;5.67;59.83203
59987;BME280;46181;51.498;5.392;2022-12-16T10:58:35;101501.6;;;5.64;59.92773
59987;BME280;46181;51.498;5.392;2022-12-16T11:02:58;101506.1;;;5.7;59.95801
59987;BME280;46181;51.498;5.392;2022-12-16T11:07:50;101501.3;;;5.76;60.20117
59987;BME280;46181;51.498;5.392;2022-12-16T11:12:01;101506.3;;;5.92;59.80078
59987;BME280;46181;51.498;5.392;2022-12-16T11:16:29;101507.5;;;5.96;59.81641
59987;BME280;46181;51.498;5.392;2022-12-16T11:21:13;101510.3;;;5.97;60.00684
59987;BME280;46181;51.498;5.392;2022-12-16T11:25:31;101511;;;6.08;59.67773
59987;BME280;46181;51.498;5.392;2022-12-16T11:30:03;101509.2;;;6.09;59.65625
59987;BME280;46181;51.498;5.392;2022-12-16T11:34:28;101508;;;6.09;59.52246
59987;BME280;46181;51.498;5.392;2022-12-16T11:38:59;101500.7;;;5.94;59.68066
59987;BME280;46181;51.498;5.392;2022-12-16T11:43:28;101505.1;;;5.79;59.7373
59987;BME280;46181;51.498;5.392;2022-12-16T11:48:04;101507.7;;;5.66;60.25391
59987;BME280;46181;51.498;5.392;2022-12-16T11:52:29;101509.3;;;5.82;60.19824
59987;BME280;46181;51.498;5.392;2022-12-16T11:56:58;101503.7;;;5.65;59.98535
59987;BME280;46181;51.498;5.392;2022-12-16T12:01:31;101504.4;;;5.5;60.30859
59987;BME280;46181;51.498;5.392;2022-12-16T12:06:08;101503.4;;;5.43;60.64258
59987;BME280;46181;51.498;5.392;2022-12-16T12:10:46;101498;;;5.47;61.10449
59987;BME280;46181;51.498;5.392;2022-12-16T12:15:03;101503.1;;;5.71;60.73828
59987;BME280;46181;51.498;5.392;2022-12-16T12:19:33;101500.1;;;5.73;60.62988
59987;BME280;46181;51.498;5.392;2022-12-16T12:24:03;101502.5;;;5.8;60.8291
59987;BME280;46181;51.498;5.392;2022-12-16T12:28:39;101504.4;;;6.02;60.79395
59987;BME280;46181;51.498;5.392;2022-12-16T12:33:05;101509.9;;;6.14;60.4209
59987;BME280;46181;51.498;5.392;2022-12-16T12:37:32;101517.2;;;6.15;60.44531
59987;BME280;46181;51.498;5.392;2022-12-16T12:42:16;101520;;;6.22;60.59766
59987;BME280;46181;51.498;5.392;2022-12-16T12:46:33;101521.2;;;6.41;60.48242
59987;BME280;46181;51.498;5.392;2022-12-16T12:51:12;101524.1;;;6.55;60.2207
59987;BME280;46181;51.498;5.392;2022-12-16T12:55:32;101526.6;;;6.6;60.00586
59987;BME280;46181;51.498;5.392;2022-12-16T13:00:03;101529.2;;;6.64;59.87695
59987;BME280;46181;51.498;5.392;2022-12-16T13:04:30;101531.5;;;6.66;59.94629
59987;BME280;46181;51.498;5.392;2022-12-16T13:09:20;101531.4;;;6.63;59.93164
59987;BME280;46181;51.498;5.392;2022-12-16T13:13:44;101527.1;;;6.58;60.03516
59987;BME280;46181;51.498;5.392;2022-12-16T13:18:23;101527.3;;;6.46;60.03125
59987;BME280;46181;51.498;5.392;2022-12-16T13:22:39;101531.5;;;6.38;60.36426
59987;BME280;46181;51.498;5.392;2022-12-16T13:27:13;101539.8;;;6.52;60.35059
59987;BME280;46181;51.498;5.392;2022-12-16T13:31:28;101542.4;;;6.67;60.03809
59987;BME280;46181;51.498;5.392;2022-12-16T13:36:05;101539.8;;;6.7;60.01953
59987;BME280;46181;51.498;5.392;2022-12-16T13:40:33;101541.8;;;6.85;59.88477
59987;BME280;46181;51.498;5.392;2022-12-16T13:45:33;101540.7;;;6.77;60.04004
59987;BME280;46181;51.498;5.392;2022-12-16T13:49:47;101548.8;;;6.79;60.03223
59987;BME280;46181;51.498;5.392;2022-12-16T13:54:00;101554.3;;;6.9;59.73438
59987;BME280;46181;51.498;5.392;2022-12-16T13:58:34;101564.7;;;6.89;59.67773
59987;BME280;46181;51.498;5.392;2022-12-16T14:03:00;101572.1;;;6.9;59.65723
59987;BME280;46181;51.498;5.392;2022-12-16T14:07:30;101566.8;;;6.9;59.70215
59987;BME280;46181;51.498;5.392;2022-12-16T14:12:01;101567.3;;;6.89;59.67773
59987;BME280;46181;51.498;5.392;2022-12-16T14:16:36;101568.4;;;6.83;59.66895
59987;BME280;46181;51.498;5.392;2022-12-16T14:21:00;101574.9;;;6.77;59.65039
59987;BME280;46181;51.498;5.392;2022-12-16T14:25:29;101585.4;;;6.71;59.78613
59987;BME280;46181;51.498;5.392;2022-12-16T14:29:59;101588.4;;;6.68;59.87207
59987;BME280;46181;51.498;5.392;2022-12-16T14:34:30;101592.9;;;6.65;59.86719
59987;BME280;46181;51.498;5.392;2022-12-16T14:38:59;101605.6;;;6.63;59.93164
59987;BME280;46181;51.498;5.392;2022-12-16T14:43:29;101608.9;;;6.62;59.95215
59987;BME280;46181;51.498;5.392;2022-12-16T14:47:58;101613.3;;;6.61;59.92871
59987;BME280;46181;51.498;5.392;2022-12-16T14:52:32;101619.5;;;6.56;59.95605
59987;BME280;46181;51.498;5.392;2022-12-16T14:56:59;101625.6;;;6.58;59.91406
59987;BME280;46181;51.498;5.392;2022-12-16T15:01:29;101628.7;;;6.56;59.94336
59987;BME280;46181;51.498;5.392;2022-12-16T15:06:02;101640.2;;;6.54;59.95215
59987;BME280;46181;51.498;5.392;2022-12-16T15:10:29;101648.1;;;6.54;59.96484
59987;BME280;46181;51.498;5.392;2022-12-16T15:14:59;101652;;;6.54;59.96289
59987;BME280;46181;51.498;5.392;2022-12-16T15:19:30;101657.4;;;6.55;59.96484
59987;BME280;46181;51.498;5.392;2022-12-16T15:23:58;101661.6;;;6.57;59.91113
59987;BME280;46181;51.498;5.392;2022-12-16T15:28:44;101667.5;;;6.46;60.16406
59987;BME280;46181;51.498;5.392;2022-12-16T15:33:09;101671.1;;;6.52;59.99414
59987;BME280;46181;51.498;5.392;2022-12-16T15:37:34;101678.2;;;6.55;59.94238
59987;BME280;46181;51.498;5.392;2022-12-16T15:41:58;101683.8;;;6.55;59.91992
59987;BME280;46181;51.498;5.392;2022-12-16T15:46:32;101689.6;;;6.5;59.92383
59987;BME280;46181;51.498;5.392;2022-12-16T15:51:03;101703.8;;;6.43;59.94824
59987;BME280;46181;51.498;5.392;2022-12-16T15:55:36;101706.5;;;6.34;59.96875
59987;BME280;46181;51.498;5.392;2022-12-16T16:00:16;101710.5;;;6.21;60.08496
59987;BME280;46181;51.498;5.392;2022-12-16T16:04:31;101723.8;;;6.18;60.14746
59987;BME280;46181;51.498;5.392;2022-12-16T16:09:07;101729.3;;;6.1;60.21387
59987;BME280;46181;51.498;5.392;2022-12-16T16:13:28;101733.1;;;6.06;60.29785
59987;BME280;46181;51.498;5.392;2022-12-16T16:18:02;101742.8;;;6.05;60.47461
59987;BME280;46181;51.498;5.392;2022-12-16T16:22:28;101741.1;;;6.08;60.40039
59987;BME280;46181;51.498;5.392;2022-12-16T16:26:59;101747.9;;;6.07;60.41016
59987;BME280;46181;51.498;5.392;2022-12-16T16:31:28;101756.9;;;6.05;60.375
59987;BME280;46181;51.498;5.392;2022-12-16T16:35:58;101763.3;;;6.03;60.39453
59987;BME280;46181;51.498;5.392;2022-12-16T16:40:32;101765;;;6.02;60.52539
59987;BME280;46181;51.498;5.392;2022-12-16T16:44:58;101765.9;;;6.06;60.4541
59987;BME280;46181;51.498;5.392;2022-12-16T16:49:33;101770.7;;;6.05;60.55273
59987;BME280;46181;51.498;5.392;2022-12-16T16:53:58;101776.2;;;6.12;60.50586
59987;BME280;46181;51.498;5.392;2022-12-16T16:58:31;101787.6;;;6.15;60.56641
59987;BME280;46181;51.498;5.392;2022-12-16T17:02:58;101784;;;6.23;60.52148
59987;BME280;46181;51.498;5.392;2022-12-16T17:07:28;101792.8;;;6.28;60.4502
59987;BME280;46181;51.498;5.392;2022-12-16T17:11:58;101800.6;;;6.3;60.36426
59987;BME280;46181;51.498;5.392;2022-12-16T17:16:28;101801;;;6.29;60.3291
59987;BME280;46181;51.498;5.392;2022-12-16T17:20:59;101794.2;;;6.26;60.38281
59987;BME280;46181;51.498;5.392;2022-12-16T17:25:28;101794.5;;;6.23;60.39844
59987;BME280;46181;51.498;5.392;2022-12-16T17:29:59;101805.6;;;6.2;60.49609
59987;BME280;46181;51.498;5.392;2022-12-16T17:34:28;101806.5;;;6.19;60.52832
59987;BME280;46181;51.498;5.392;2022-12-16T17:38:58;101813;;;6.18;60.60547
59987;BME280;46181;51.498;5.392;2022-12-16T17:43:28;101820.4;;;6.23;60.63281
59987;BME280;46181;51.498;5.392;2022-12-16T17:47:58;101826.2;;;6.24;60.62402
59987;BME280;46181;51.498;5.392;2022-12-16T17:52:28;101832;;;6.25;60.52344
59987;BME280;46181;51.498;5.392;2022-12-16T17:56:58;101834.4;;;6.22;60.53125
59987;BME280;46181;51.498;5.392;2022-12-16T18:01:28;101843.4;;;6.22;60.58691
59987;BME280;46181;51.498;5.392;2022-12-16T18:06:03;101851.8;;;6.19;60.61719
59987;BME280;46181;51.498;5.392;2022-12-16T18:10:28;101854.4;;;6.21;60.54199
59987;BME280;46181;51.498;5.392;2022-12-16T18:14:58;101857.7;;;6.17;60.56934
59987;BME280;46181;51.498;5.392;2022-12-16T18:19:28;101861.8;;;6.14;60.59863
59987;BME280;46181;51.498;5.392;2022-12-16T18:23:58;101864.5;;;6.11;60.58398
59987;BME280;46181;51.498;5.392;2022-12-16T18:28:31;101867;;;6.05;60.74219
59987;BME280;46181;51.498;5.392;2022-12-16T18:32:58;101868.2;;;6.02;60.81445
59987;BME280;46181;51.498;5.392;2022-12-16T18:37:28;101876.2;;;5.97;60.7959
59987;BME280;46181;51.498;5.392;2022-12-16T18:41:58;101876.8;;;5.92;60.91211
59987;BME280;46181;51.498;5.392;2022-12-16T18:46:28;101876.4;;;5.96;60.88477
59987;BME280;46181;51.498;5.392;2022-12-16T18:51:04;101876.7;;;5.9;60.84375
59987;BME280;46181;51.498;5.392;2022-12-16T18:55:28;101881.2;;;5.94;60.74805
59987;BME280;46181;51.498;5.392;2022-12-16T18:59:58;101888.6;;;5.87;60.7168
59987;BME280;46181;51.498;5.392;2022-12-16T19:04:28;101889.8;;;5.73;60.90723
59987;BME280;46181;51.498;5.392;2022-12-16T19:08:58;101904.4;;;5.75;61.08789
59987;BME280;46181;51.498;5.392;2022-12-16T19:13:28;101911.4;;;5.78;61.05957
59987;BME280;46181;51.498;5.392;2022-12-16T19:17:58;101912.4;;;5.85;61.05859
59987;BME280;46181;51.498;5.392;2022-12-16T19:22:28;101916.2;;;5.89;60.9541
59987;BME280;46181;51.498;5.392;2022-12-16T19:26:58;101923.2;;;5.91;61.0127
59987;BME280;46181;51.498;5.392;2022-12-16T19:31:29;101926.2;;;5.89;60.77441
59987;BME280;46181;51.498;5.392;2022-12-16T19:35:58;101921;;;5.83;60.78809
59987;BME280;46181;51.498;5.392;2022-12-16T19:40:28;101928.9;;;5.76;60.83496
59987;BME280;46181;51.498;5.392;2022-12-16T19:44:58;101933.8;;;5.71;60.9375
59987;BME280;46181;51.498;5.392;2022-12-16T19:49:28;101934.4;;;5.67;61.05566
59987;BME280;46181;51.498;5.392;2022-12-16T19:53:58;101940.3;;;5.63;61.10645
59987;BME280;46181;51.498;5.392;2022-12-16T19:58:31;101943.6;;;5.61;61.11328
59987;BME280;46181;51.498;5.392;2022-12-16T20:02:58;101943;;;5.61;61.10254
59987;BME280;46181;51.498;5.392;2022-12-16T20:07:28;101955.5;;;5.57;61.13086
59987;BME280;46181;51.498;5.392;2022-12-16T20:11:58;101954.7;;;5.55;61.22656
59987;BME280;46181;51.498;5.392;2022-12-16T20:16:28;101954.5;;;5.56;61.22949
59987;BME280;46181;51.498;5.392;2022-12-16T20:20:59;101960.7;;;5.57;61.26367
59987;BME280;46181;51.498;5.392;2022-12-16T20:25:28;101968.7;;;5.62;61.22559
59987;BME280;46181;51.498;5.392;2022-12-16T20:29:58;101972.7;;;5.66;61.15332
59987;BME280;46181;51.498;5.392;2022-12-16T20:34:28;101974.9;;;5.68;61.0459
59987;BME280;46181;51.498;5.392;2022-12-16T20:38:58;101980.4;;;5.7;61.00391
59987;BME280;46181;51.498;5.392;2022-12-16T20:43:28;101984.8;;;5.65;60.89648
59987;BME280;46181;51.498;5.392;2022-12-16T20:48:01;101996.4;;;5.57;60.99707
59987;BME280;46181;51.498;5.392;2022-12-16T20:52:28;102003.2;;;5.62;61.02539
59987;BME280;46181;51.498;5.392;2022-12-16T20:57:01;102006.3;;;5.57;61.00781
59987;BME280;46181;51.498;5.392;2022-12-16T21:01:28;102012.8;;;5.52;61.01172
59987;BME280;46181;51.498;5.392;2022-12-16T21:06:02;102023;;;5.43;61.13086
59987;BME280;46181;51.498;5.392;2022-12-16T21:14:58;102027.5;;;5.46;61.2373
59987;BME280;46181;51.498;5.392;2022-12-16T21:19:28;102032.8;;;5.5;61.23047
59987;BME280;46181;51.498;5.392;2022-12-16T21:23:58;102033.1;;;5.49;61.06348
59987;BME280;46181;51.498;5.392;2022-12-16T21:28:28;102041.3;;;5.45;61.05762
59987;BME280;46181;51.498;5.392;2022-12-16T21:32:58;102046.4;;;5.5;61.28711
59987;BME280;46181;51.498;5.392;2022-12-16T21:37:28;102050.2;;;5.53;61.09082
59987;BME280;46181;51.498;5.392;2022-12-16T21:41:58;102055.5;;;5.54;60.95898
59987;BME280;46181;51.498;5.392;2022-12-16T21:46:28;102062;;;5.53;60.86816
59987;BME280;46181;51.498;5.392;2022-12-16T21:51:02;102058.8;;;5.52;61.03418
59987;BME280;46181;51.498;5.392;2022-12-16T21:55:28;102063.2;;;5.55;60.78223
59987;BME280;46181;51.498;5.392;2022-12-16T21:59:58;102061.9;;;5.53;60.85742
59987;BME280;46181;51.498;5.392;2022-12-16T22:04:28;102066;;;5.55;61.02637
59987;BME280;46181;51.498;5.392;2022-12-16T22:08:58;102063.2;;;5.58;60.85254
59987;BME280;46181;51.498;5.392;2022-12-16T22:13:28;102063.9;;;5.57;60.78613
59987;BME280;46181;51.498;5.392;2022-12-16T22:17:58;102078.2;;;5.59;60.8125
59987;BME280;46181;51.498;5.392;2022-12-16T22:22:28;102081.3;;;5.63;60.76172
59987;BME280;46181;51.498;5.392;2022-12-16T22:26:58;102086;;;5.65;60.68457
59987;BME280;46181;51.498;5.392;2022-12-16T22:31:28;102086.3;;;5.66;60.75391
59987;BME280;46181;51.498;5.392;2022-12-16T22:36:02;102094.4;;;5.69;60.71387
59987;BME280;46181;51.498;5.392;2022-12-16T22:40:28;102093;;;5.67;60.63281
59987;BME280;46181;51.498;5.392;2022-12-16T22:44:58;102094.7;;;5.58;60.58691
59987;BME280;46181;51.498;5.392;2022-12-16T22:49:28;102090.4;;;5.5;60.5752
59987;BME280;46181;51.498;5.392;2022-12-16T22:54:00;102097.7;;;5.35;60.67773
59987;BME280;46181;51.498;5.392;2022-12-16T22:58:28;102105.3;;;5.27;60.79785
59987;BME280;46181;51.498;5.392;2022-12-16T23:02:59;102106.7;;;5.15;60.87109
59987;BME280;46181;51.498;5.392;2022-12-16T23:07:28;102106.5;;;5.16;61.07227
59987;BME280;46181;51.498;5.392;2022-12-16T23:11:58;102112.8;;;5.17;61.15039
59987;BME280;46181;51.498;5.392;2022-12-16T23:16:29;102118.8;;;5.22;61.23633
59987;BME280;46181;51.498;5.392;2022-12-16T23:20:59;102119;;;5.21;60.91211
59987;BME280;46181;51.498;5.392;2022-12-16T23:25:28;102111.1;;;5.12;60.86719
59987;BME280;46181;51.498;5.392;2022-12-16T23:29:58;102108.4;;;4.94;60.77441
59987;BME280;46181;51.498;5.392;2022-12-16T23:34:28;102115.6;;;4.81;60.81152